This is the latest recevied weather packets stored in our database for station/object AB4KY. If no packets are shown the sender has not sent any weather packets the latest 1 day(s).
| Time | Temp. | Humidity | Pressure | Rain* | Wind** | Luminosity | Snow |
|---|---|---|---|---|---|---|---|
| 1778081580 | 12.22° C | 73% | 1011.4 hPa | 0 mm | - | 478 W/m² | - |
| 1778080066 | 12.22° C | 77% | 1011 hPa | 0 mm | - | 473 W/m² | - |
| 1778079460 | 11.11° C | 78% | 1010.9 hPa | 0 mm | - | 325 W/m² | - |
| 1778078551 | 11.11° C | 83% | 1011.3 hPa | 0 mm | - | 427 W/m² | - |
| 1778077946 | 11.11° C | 82% | 1010.7 hPa | 0 mm | - | 445 W/m² | - |
| 1778077342 | 11.67° C | 86% | 1010.5 hPa | 0 mm | - | 382 W/m² | - |
| 1778077040 | 10.56° C | 85% | 1010.5 hPa | 0 mm | - | 385 W/m² | - |
| 1778076738 | 10° C | 86% | 1010.1 hPa | 0 mm | - | 232 W/m² | - |
| 1778076132 | 10.56° C | 87% | 1010.7 hPa | 0 mm | - | 292 W/m² | - |
| 1778075525 | 10.56° C | 89% | 1010.2 hPa | 0 mm | - | 387 W/m² | - |
| 1778075222 | 10.56° C | 88% | 1010.3 hPa | 0 mm | - | 345 W/m² | - |
| 1778074918 | 10° C | 89% | 1010.2 hPa | 0 mm | - | 247 W/m² | - |
| 1778073706 | 8.89° C | 93% | 1010.1 hPa | 0 mm | - | 95 W/m² | - |
| 1778073404 | 8.89° C | 94% | 1009.8 hPa | 0 mm | - | 114 W/m² | - |
| 1778071285 | 7.22° C | 99% | 1009.5 hPa | 0 mm | - | 73 W/m² | - |
| 1778069167 | 7.22° C | 99% | 1009.8 hPa | 0 mm | - | 43 W/m² | - |
| 1778068260 | 6.67° C | 99% | 1009.7 hPa | 0 mm | - | 42 W/m² | - |
| 1778067957 | 6.67° C | 99% | 1009.4 hPa | 0 mm | - | 38 W/m² | - |
| 1778067353 | 6.67° C | 99% | 1009.2 hPa | 0 mm | - | 23 W/m² | - |
| 1778067050 | 6.67° C | 99% | 1009.1 hPa | 0 mm | - | 22 W/m² | - |
| 1778066444 | 6.67° C | 99% | 1009.2 hPa | 0 mm | - | 16 W/m² | - |
| 1778063719 | 6.11° C | 99% | 1008.1 hPa | 0 mm | - | 0 W/m² | - |
| 1778063416 | 6.11° C | 99% | 1008.4 hPa | 0 mm | - | 0 W/m² | - |
| 1778062811 | 6.67° C | 99% | 1007.9 hPa | 0 mm | - | 0 W/m² | - |
| 1778062508 | 6.67° C | 99% | 1007.5 hPa | 0 mm | - | 0 W/m² | - |
* Rain latest hour (hover to see other rain measurements)
** Current wind speed in m/s (hover to see current wind gust speed)